Time;durP1;ratioP1;P1;durP2;ratioP2;P2;SDS_P1;SDS_P2;PMS_P1;PMS_P2;Temp;Humidity;BMP_temperature;BMP_pressure;BME280_temperature;BME280_humidity;BME280_pressure;Samples;Min_cycle;Max_cycle;Signal;HPM_P1;HPM_P2
2023/08/22 00:02:27;;;;;;;11.97;9.03;;;19.60;69.40;;;;;;5013698;28;20385;-73
2023/08/22 00:04:53;;;;;;;15.50;9.40;;;19.70;68.20;;;;;;5013908;28;20405;-72
2023/08/22 00:07:18;;;;;;;18.52;9.27;;;19.70;68.30;;;;;;5014467;28;20491;-72
2023/08/22 00:09:44;;;;;;;17.63;9.10;;;19.60;69.10;;;;;;5013745;28;20671;-73
2023/08/22 00:12:10;;;;;;;12.37;9.60;;;19.50;70.80;;;;;;5013445;28;20862;-72
2023/08/22 00:14:36;;;;;;;13.27;9.27;;;19.40;72.10;;;;;;5013084;28;20385;-74
2023/08/22 00:17:02;;;;;;;13.10;9.20;;;19.50;71.20;;;;;;5013518;28;20451;-73
2023/08/22 00:19:27;;;;;;;16.15;9.50;;;19.40;71.20;;;;;;5013826;28;20396;-73
2023/08/22 00:21:53;;;;;;;17.88;9.10;;;19.50;71.90;;;;;;5013067;28;20381;-73
2023/08/22 00:24:18;;;;;;;16.98;9.38;;;19.50;71.50;;;;;;5013296;28;20413;-73
2023/08/22 00:26:44;;;;;;;16.57;9.83;;;19.50;70.70;;;;;;5012214;28;20428;-73
2023/08/22 00:29:10;;;;;;;14.40;9.68;;;19.60;70.00;;;;;;5013734;28;20488;-74
2023/08/22 00:31:35;;;;;;;15.37;9.00;;;19.60;70.30;;;;;;5013144;28;20381;-74
2023/08/22 00:34:02;;;;;;;13.97;8.80;;;19.50;70.70;;;;;;5013498;28;20858;-74
2023/08/22 00:36:30;;;;;;;13.75;9.38;;;19.50;72.30;;;;;;5013140;28;20746;-73
2023/08/22 00:38:56;;;;;;;16.52;9.48;;;19.40;73.30;;;;;;5013960;28;20444;-72
2023/08/22 00:41:21;;;;;;;16.25;9.07;;;19.30;74.40;;;;;;5011597;28;20393;-72
2023/08/22 00:43:47;;;;;;;11.50;9.57;;;19.10;76.10;;;;;;5012835;28;20388;-74
2023/08/22 00:46:13;;;;;;;15.97;10.13;;;18.90;78.90;;;;;;5012857;28;20405;-72
2023/08/22 00:48:39;;;;;;;14.63;9.77;;;18.80;81.00;;;;;;5013181;28;20385;-72
2023/08/22 00:51:06;;;;;;;14.70;10.00;;;18.90;82.20;;;;;;5012399;28;20461;-72
2023/08/22 00:53:32;;;;;;;15.02;9.93;;;18.80;83.10;;;;;;5012697;28;20421;-72
2023/08/22 00:55:58;;;;;;;13.75;9.70;;;18.60;85.90;;;;;;5012536;28;20446;-73
2023/08/22 00:58:24;;;;;;;14.57;9.80;;;18.50;88.60;;;;;;5012642;28;20392;-73
2023/08/22 01:00:49;;;;;;;15.70;11.05;;;18.40;91.30;;;;;;5012305;28;20407;-71
2023/08/22 01:03:15;;;;;;;21.30;10.70;;;18.30;93.20;;;;;;5012240;28;20397;-73
2023/08/22 01:06:03;;;;;;;16.05;10.10;;;18.30;93.20;;;;;;5009653;23;20932;-74
2023/08/22 01:08:31;;;;;;;17.02;9.63;;;18.30;94.00;;;;;;4993482;28;20391;-73
2023/08/22 01:11:05;;;;;;;15.88;10.13;;;18.20;94.90;;;;;;4993201;28;20463;-73
2023/08/22 01:13:34;;;;;;;16.35;9.70;;;18.20;95.80;;;;;;4992894;28;20398;-74
2023/08/22 01:16:01;;;;;;;22.40;10.60;;;18.20;95.20;;;;;;4973675;28;20384;-73
2023/08/22 01:18:27;;;;;;;13.57;9.48;;;18.30;94.90;;;;;;4973597;28;20395;-74
2023/08/22 01:20:58;;;;;;;12.97;9.80;;;18.30;94.00;;;;;;4973398;28;20478;-74
2023/08/22 01:23:23;;;;;;;15.60;9.57;;;18.40;92.20;;;;;;4974873;28;20389;-73
2023/08/22 01:25:49;;;;;;;13.95;9.40;;;18.40;91.60;;;;;;4972626;28;20435;-73
2023/08/22 01:28:32;;;;;;;13.35;9.35;;;18.40;91.10;;;;;;4973438;28;20422;-73
2023/08/22 01:31:16;;;;;;;26.30;10.20;;;18.50;91.20;;;;;;4973062;28;20873;-72
2023/08/22 01:33:58;;;;;;;16.73;9.30;;;18.50;89.80;;;;;;4973252;28;20466;-74
2023/08/22 01:36:25;;;;;;;12.18;9.35;;;18.80;84.30;;;;;;4973268;28;20706;-74
2023/08/22 01:38:52;;;;;;;15.32;8.85;;;18.70;85.00;;;;;;4973006;28;20877;-74
2023/08/22 01:41:18;;;;;;;12.82;9.40;;;18.80;84.70;;;;;;4972897;28;21009;-73
2023/08/22 01:43:44;;;;;;;15.40;9.47;;;18.70;84.40;;;;;;4973166;28;20443;-72
2023/08/22 01:46:09;;;;;;;12.77;8.70;;;18.80;82.50;;;;;;4973048;28;20408;-72
2023/08/22 01:48:35;;;;;;;14.60;9.23;;;18.80;83.40;;;;;;4973058;28;20447;-74
2023/08/22 01:51:01;;;;;;;13.63;8.65;;;18.80;83.50;;;;;;4972718;28;20483;-74
2023/08/22 01:53:27;;;;;;;10.50;8.68;;;18.80;82.30;;;;;;4973256;28;20790;-74
2023/08/22 01:55:52;;;;;;;15.60;10.20;;;18.80;82.10;;;;;;4972839;28;20415;-74
2023/08/22 01:58:18;;;;;;;12.00;8.35;;;19.00;78.20;;;;;;4972947;28;20403;-73
2023/08/22 02:00:43;;;;;;;14.43;8.68;;;19.10;75.60;;;;;;4972748;28;20384;-73
2023/08/22 02:03:10;;;;;;;14.63;8.87;;;19.10;75.30;;;;;;4972852;28;20988;-73
2023/08/22 02:05:35;;;;;;;14.25;9.00;;;18.90;77.30;;;;;;4972420;28;20897;-74
2023/08/22 02:08:01;;;;;;;12.77;8.00;;;18.80;78.30;;;;;;4972960;28;20396;-74
2023/08/22 02:10:26;;;;;;;16.08;9.05;;;18.70;81.10;;;;;;4973545;28;20392;-72
2023/08/22 02:12:52;;;;;;;13.50;8.83;;;18.70;81.90;;;;;;4973112;28;20524;-74
2023/08/22 02:15:19;;;;;;;15.13;9.30;;;18.50;83.80;;;;;;4972592;28;20407;-73
2023/08/22 02:17:45;;;;;;;14.82;9.30;;;18.40;85.80;;;;;;4972736;28;20941;-74
2023/08/22 02:20:11;;;;;;;13.00;9.47;;;18.30;87.20;;;;;;4972727;28;20486;-74
2023/08/22 02:22:42;;;;;;;13.40;8.68;;;18.30;87.10;;;;;;4971600;28;20523;-74
2023/08/22 02:25:08;;;;;;;18.50;9.10;;;18.30;87.10;;;;;;4972231;28;20496;-73
2023/08/22 02:27:34;;;;;;;10.45;8.07;;;18.20;88.90;;;;;;4972550;28;20750;-73
2023/08/22 02:30:00;;;;;;;13.00;7.57;;;18.20;91.10;;;;;;4972189;28;20399;-72
2023/08/22 02:32:25;;;;;;;11.35;8.38;;;18.20;90.80;;;;;;4972073;28;20900;-72
2023/08/22 02:34:51;;;;;;;12.60;8.20;;;18.10;91.80;;;;;;4971926;28;20881;-74
2023/08/22 02:37:17;;;;;;;14.13;8.60;;;18.20;92.70;;;;;;4972101;28;20430;-74
2023/08/22 02:39:42;;;;;;;11.18;7.32;;;18.30;89.80;;;;;;4971998;28;20824;-73
2023/08/22 02:42:08;;;;;;;11.77;8.30;;;18.30;90.60;;;;;;4972460;28;20392;-74
2023/08/22 02:44:33;;;;;;;15.00;8.07;;;18.50;85.90;;;;;;4971868;28;21022;-74
2023/08/22 02:46:59;;;;;;;12.67;8.70;;;18.40;87.00;;;;;;4972044;28;20388;-74
2023/08/22 02:49:24;;;;;;;11.40;8.40;;;18.30;87.70;;;;;;4970782;28;20940;-74
2023/08/22 02:51:50;;;;;;;15.18;8.65;;;18.20;88.90;;;;;;4972538;28;20455;-74
2023/08/22 02:54:16;;;;;;;12.82;8.38;;;18.30;88.70;;;;;;4971959;28;20438;-74
2023/08/22 02:56:41;;;;;;;11.83;7.80;;;18.20;89.30;;;;;;4986755;28;20400;-74
2023/08/22 02:59:07;;;;;;;13.23;8.40;;;18.10;90.20;;;;;;4972000;28;20460;-74
2023/08/22 03:01:32;;;;;;;14.80;8.48;;;18.10;91.60;;;;;;4971495;28;20388;-74
2023/08/22 03:03:58;;;;;;;11.57;7.80;;;18.00;92.40;;;;;;4971455;28;20450;-74
2023/08/22 03:06:23;;;;;;;12.47;7.90;;;18.00;93.60;;;;;;4970784;28;20774;-74
2023/08/22 03:08:49;;;;;;;12.07;8.10;;;17.90;94.40;;;;;;4971212;28;20505;-73
2023/08/22 03:11:15;;;;;;;15.48;8.00;;;17.90;95.00;;;;;;4972231;28;20388;-75
2023/08/22 03:13:40;;;;;;;14.47;8.27;;;17.90;93.70;;;;;;4982290;28;20424;-75
2023/08/22 03:16:06;;;;;;;11.27;7.60;;;17.80;95.30;;;;;;4956497;28;20460;-74
2023/08/22 03:18:32;;;;;;;11.10;7.70;;;17.80;96.30;;;;;;4955113;28;20404;-74
2023/08/22 03:20:57;;;;;;;14.95;8.43;;;17.80;97.70;;;;;;4974545;28;20400;-77
2023/08/22 03:23:23;;;;;;;15.20;7.80;;;17.80;97.50;;;;;;4992740;28;20415;-77
2023/08/22 03:26:02;;;;;;;11.37;8.10;;;17.80;97.60;;;;;;4976297;28;20462;-76
2023/08/22 03:28:29;;;;;;;16.10;8.40;;;17.90;95.50;;;;;;4972361;28;20454;-74
2023/08/22 03:30:56;;;;;;;15.33;8.33;;;17.90;95.60;;;;;;4971638;28;20418;-75
2023/08/22 03:33:23;;;;;;;12.35;7.97;;;17.90;95.90;;;;;;4972165;28;20396;-74
2023/08/22 03:35:50;;;;;;;10.50;7.70;;;17.80;96.90;;;;;;4971400;28;20439;-74
2023/08/22 03:38:15;;;;;;;10.40;8.00;;;17.80;96.40;;;;;;4971498;28;20395;-76
2023/08/22 03:40:41;;;;;;;10.37;7.83;;;17.80;97.50;;;;;;4971582;28;20392;-75
2023/08/22 03:43:06;;;;;;;12.02;7.70;;;17.90;95.60;;;;;;4971932;28;20952;-74
2023/08/22 03:45:32;;;;;;;15.13;8.10;;;17.90;95.50;;;;;;4971991;28;20805;-74
2023/08/22 03:48:03;;;;;;;14.00;8.23;;;17.90;94.00;;;;;;4972600;28;20423;-73
2023/08/22 03:50:32;;;;;;;14.40;8.63;;;17.80;95.40;;;;;;4991300;28;20392;-74
2023/08/22 03:52:58;;;;;;;12.30;8.33;;;17.70;96.10;;;;;;4977721;28;20396;-73
2023/08/22 03:55:23;;;;;;;17.80;8.60;;;17.60;97.60;;;;;;4989891;28;20396;-74
2023/08/22 03:57:49;;;;;;;16.13;8.55;;;17.60;98.50;;;;;;4986418;28;20742;-73
2023/08/22 04:00:15;;;;;;;15.95;9.10;;;17.60;99.60;;;;;;4978561;28;20749;-75
2023/08/22 04:02:41;;;;;;;13.68;8.63;;;17.60;99.90;;;;;;4974802;28;20392;-75
2023/08/22 04:05:07;;;;;;;18.67;9.70;;;17.60;99.90;;;;;;4974691;28;20558;-75
2023/08/22 04:07:32;;;;;;;19.00;9.90;;;17.70;97.50;;;;;;4974724;28;20384;-74
2023/08/22 04:09:58;;;;;;;13.10;8.68;;;17.80;96.50;;;;;;4974835;28;20389;-73
2023/08/22 04:12:24;;;;;;;11.73;8.30;;;17.80;94.90;;;;;;4975102;28;20443;-74
2023/08/22 04:14:49;;;;;;;12.03;8.77;;;18.00;92.60;;;;;;4975742;28;20438;-74
2023/08/22 04:17:15;;;;;;;14.52;8.90;;;17.90;92.60;;;;;;4976084;28;20471;-74
2023/08/22 04:19:41;;;;;;;18.58;9.15;;;17.70;94.10;;;;;;4977854;28;20419;-73
2023/08/22 04:22:07;;;;;;;13.70;9.43;;;17.70;95.20;;;;;;4978742;28;20439;-74
2023/08/22 04:24:33;;;;;;;16.48;9.50;;;17.70;96.60;;;;;;4984596;28;20412;-74
2023/08/22 04:26:58;;;;;;;19.17;9.18;;;17.70;97.50;;;;;;4987429;28;20407;-75
2023/08/22 04:29:24;;;;;;;21.13;9.40;;;17.70;96.30;;;;;;4989771;28;20399;-73
2023/08/22 04:31:50;;;;;;;15.80;9.90;;;17.70;96.40;;;;;;4990613;28;20415;-73
2023/08/22 04:34:15;;;;;;;19.80;10.67;;;17.60;97.40;;;;;;4987961;28;20392;-73
2023/08/22 04:36:41;;;;;;;18.53;10.77;;;17.60;99.30;;;;;;4986434;28;20438;-74
2023/08/22 04:39:07;;;;;;;17.45;10.15;;;17.80;98.70;;;;;;4978458;28;20391;-73
2023/08/22 04:41:32;;;;;;;16.70;11.07;;;17.70;96.80;;;;;;4976446;28;20475;-74
2023/08/22 04:43:58;;;;;;;18.00;10.87;;;17.70;98.60;;;;;;4975059;28;20725;-73
2023/08/22 04:46:24;;;;;;;19.10;11.40;;;17.60;99.60;;;;;;4976695;28;20420;-75
2023/08/22 04:48:49;;;;;;;14.00;10.30;;;17.70;99.40;;;;;;4977031;28;20424;-74
2023/08/22 04:51:15;;;;;;;15.70;9.47;;;17.70;99.80;;;;;;4974961;28;20392;-75
2023/08/22 04:53:40;;;;;;;13.03;8.90;;;17.70;99.20;;;;;;4974755;28;20781;-75
2023/08/22 04:56:06;;;;;;;15.35;9.35;;;17.70;99.60;;;;;;4974991;28;20380;-75
2023/08/22 04:58:32;;;;;;;12.80;9.02;;;17.80;97.60;;;;;;4975103;28;20388;-74
2023/08/22 05:00:58;;;;;;;18.30;10.03;;;17.70;98.40;;;;;;4972704;28;20419;-74
2023/08/22 05:03:24;;;;;;;18.80;10.43;;;17.60;99.30;;;;;;4974446;28;20392;-74
2023/08/22 05:05:50;;;;;;;19.27;9.93;;;17.60;99.90;;;;;;4973734;28;20467;-74
2023/08/22 05:08:15;;;;;;;15.63;9.40;;;17.60;99.90;;;;;;4974069;28;20392;-74
2023/08/22 05:10:41;;;;;;;16.60;9.95;;;17.60;99.90;;;;;;4975417;28;20395;-74
2023/08/22 05:13:07;;;;;;;19.50;10.93;;;17.60;99.90;;;;;;4973741;28;20395;-74
2023/08/22 05:15:32;;;;;;;19.03;11.23;;;17.60;99.90;;;;;;4973145;28;20393;-75
2023/08/22 05:17:58;;;;;;;17.40;10.32;;;17.70;99.90;;;;;;4974038;28;20861;-74
2023/08/22 05:20:23;;;;;;;19.73;10.90;;;17.70;99.30;;;;;;4973802;28;20500;-74
2023/08/22 05:22:49;;;;;;;19.10;11.40;;;17.70;99.80;;;;;;4973161;28;20396;-74
2023/08/22 05:25:15;;;;;;;16.42;10.70;;;17.70;99.90;;;;;;4972955;28;20415;-75
2023/08/22 05:27:40;;;;;;;21.83;10.60;;;17.80;99.90;;;;;;4973143;28;20396;-72
2023/08/22 05:30:06;;;;;;;15.73;10.30;;;17.90;97.30;;;;;;4973418;28;20384;-74
2023/08/22 05:32:32;;;;;;;14.45;10.50;;;18.00;96.50;;;;;;4972856;28;20388;-73
2023/08/22 05:34:58;;;;;;;17.38;10.45;;;18.10;96.50;;;;;;4973066;28;20407;-75
2023/08/22 05:37:24;;;;;;;15.00;9.57;;;18.40;90.90;;;;;;4973115;28;20467;-76
2023/08/22 05:39:50;;;;;;;17.97;9.83;;;18.50;88.30;;;;;;4973339;28;20388;-73
2023/08/22 05:42:15;;;;;;;13.20;8.70;;;18.50;87.80;;;;;;4972667;28;20766;-74
2023/08/22 05:44:41;;;;;;;16.73;9.43;;;18.70;84.50;;;;;;4972669;28;20410;-74
2023/08/22 05:47:08;;;;;;;14.52;10.50;;;18.70;83.60;;;;;;4973697;28;20947;-73
2023/08/22 05:49:34;;;;;;;17.48;9.60;;;18.80;82.70;;;;;;4973275;28;20480;-76
2023/08/22 05:52:02;;;;;;;16.98;10.60;;;18.80;82.50;;;;;;4973003;28;20388;-72
2023/08/22 05:54:28;;;;;;;17.20;9.73;;;18.90;80.20;;;;;;4972980;28;20387;-74
2023/08/22 05:56:54;;;;;;;20.25;10.15;;;18.90;81.40;;;;;;4973951;28;20976;-74
2023/08/22 05:59:19;;;;;;;14.93;10.87;;;18.90;81.40;;;;;;4973166;28;20403;-76
2023/08/22 06:01:45;;;;;;;21.33;10.50;;;18.90;80.50;;;;;;4973753;28;20415;-74
2023/08/22 06:04:10;;;;;;;16.50;10.30;;;19.10;77.20;;;;;;4972364;28;20488;-75
2023/08/22 06:06:36;;;;;;;22.20;11.50;;;19.00;79.50;;;;;;4972360;28;20399;-75
2023/08/22 06:09:02;;;;;;;16.50;10.53;;;18.90;79.60;;;;;;4972165;28;20383;-75
2023/08/22 06:11:27;;;;;;;15.85;10.43;;;18.80;81.90;;;;;;4973610;28;20797;-73
2023/08/22 06:13:55;;;;;;;18.00;10.30;;;18.80;84.30;;;;;;4973157;28;20388;-74
2023/08/22 06:16:20;;;;;;;19.70;11.15;;;18.80;85.60;;;;;;4972951;28;20403;-75
2023/08/22 06:18:46;;;;;;;17.45;11.40;;;18.90;85.20;;;;;;4973063;28;20389;-75
2023/08/22 06:21:11;;;;;;;19.90;10.60;;;19.00;83.90;;;;;;4972998;28;20479;-75
2023/08/22 06:23:37;;;;;;;21.58;11.80;;;19.20;83.40;;;;;;4973831;28;20753;-75
2023/08/22 06:26:02;;;;;;;24.87;13.07;;;19.40;79.60;;;;;;4973258;28;20828;-74
2023/08/22 06:28:28;;;;;;;21.30;13.10;;;19.40;77.90;;;;;;4973454;28;20541;-75
2023/08/22 06:30:53;;;;;;;20.83;13.20;;;19.40;77.40;;;;;;4972860;28;20381;-74
2023/08/22 06:33:19;;;;;;;19.10;12.50;;;19.40;77.40;;;;;;4973297;28;20474;-74
2023/08/22 06:35:46;;;;;;;20.60;13.10;;;19.40;77.90;;;;;;4972793;28;20783;-74
2023/08/22 06:38:11;;;;;;;24.23;12.40;;;19.50;77.90;;;;;;4972812;28;20415;-72
2023/08/22 06:40:37;;;;;;;19.33;12.00;;;19.60;77.90;;;;;;4972460;28;20384;-74
2023/08/22 06:43:03;;;;;;;19.17;12.23;;;19.70;73.90;;;;;;4972569;28;20982;-74
2023/08/22 06:45:29;;;;;;;23.30;11.80;;;20.00;71.20;;;;;;4972079;28;20486;-73
2023/08/22 06:47:55;;;;;;;24.50;11.60;;;20.20;66.60;;;;;;4972352;28;20861;-74
2023/08/22 06:50:20;;;;;;;23.70;11.10;;;20.40;61.90;;;;;;4973168;28;20388;-73
2023/08/22 06:52:46;;;;;;;20.03;11.50;;;20.50;61.10;;;;;;4972776;28;20400;-73
2023/08/22 06:55:11;;;;;;;20.27;10.40;;;20.70;58.20;;;;;;4973971;28;21275;-75
2023/08/22 06:57:38;;;;;;;19.30;10.27;;;20.90;57.00;;;;;;4981709;28;20406;-73
2023/08/22 07:00:14;;;;;;;19.90;9.88;;;21.10;55.60;;;;;;4983758;28;20399;-75
2023/08/22 07:02:41;;;;;;;22.10;10.57;;;21.30;53.10;;;;;;4978950;28;20470;-73
2023/08/22 07:05:08;;;;;;;20.58;10.30;;;21.60;52.20;;;;;;4986721;23;20747;-74
2023/08/22 07:07:34;;;;;;;19.17;9.33;;;21.90;50.10;;;;;;4971856;28;20464;-73
2023/08/22 07:10:00;;;;;;;17.33;9.00;;;22.20;47.80;;;;;;4971687;28;20380;-73
2023/08/22 07:12:25;;;;;;;18.48;9.70;;;22.30;47.40;;;;;;4971557;28;20468;-73
2023/08/22 07:14:51;;;;;;;21.20;9.03;;;22.40;45.60;;;;;;4971532;28;20422;-74
2023/08/22 07:17:16;;;;;;;20.85;9.10;;;22.70;44.80;;;;;;4971679;28;20546;-74
2023/08/22 07:19:42;;;;;;;15.90;9.00;;;22.80;44.30;;;;;;4971945;28;20391;-74
2023/08/22 07:22:08;;;;;;;20.35;8.98;;;22.80;43.80;;;;;;4971848;28;20479;-73
2023/08/22 07:24:33;;;;;;;15.00;8.60;;;22.80;43.30;;;;;;4956465;28;20920;-73
2023/08/22 07:26:59;;;;;;;14.88;8.90;;;22.90;43.30;;;;;;4975134;28;20471;-73
2023/08/22 07:29:24;;;;;;;18.40;8.20;;;23.10;42.70;;;;;;4975199;28;20388;-74
2023/08/22 07:31:50;;;;;;;18.23;9.00;;;23.40;40.30;;;;;;4975264;28;20515;-75
2023/08/22 07:34:15;;;;;;;21.20;9.50;;;23.50;39.60;;;;;;4975941;28;20747;-74
2023/08/22 07:36:41;;;;;;;18.30;8.88;;;23.50;37.80;;;;;;4977723;28;20399;-74
2023/08/22 07:39:06;;;;;;;16.50;8.60;;;23.50;37.80;;;;;;4977411;28;20380;-75
2023/08/22 07:41:32;;;;;;;18.27;8.70;;;23.70;37.80;;;;;;4978886;28;20506;-75
2023/08/22 07:43:57;;;;;;;17.83;9.07;;;23.80;37.00;;;;;;4977694;28;20388;-75
2023/08/22 07:46:23;;;;;;;18.35;8.20;;;24.00;36.80;;;;;;4979726;28;20415;-75
2023/08/22 07:48:49;;;;;;;14.57;8.17;;;24.10;35.40;;;;;;4977499;28;20391;-74
2023/08/22 07:51:15;;;;;;;20.50;8.02;;;24.30;34.80;;;;;;4976900;28;20500;-75
2023/08/22 07:53:41;;;;;;;17.40;8.00;;;24.30;34.40;;;;;;4961307;28;20392;-76
2023/08/22 07:56:07;;;;;;;16.47;7.37;;;24.50;33.50;;;;;;4976986;28;20468;-75
2023/08/22 07:58:32;;;;;;;17.42;8.57;;;24.50;32.70;;;;;;4975354;28;20388;-74
2023/08/22 08:00:58;;;;;;;14.20;7.50;;;24.60;32.40;;;;;;4974820;28;20403;-73
2023/08/22 08:03:23;;;;;;;20.40;8.07;;;24.70;31.40;;;;;;4974909;28;20475;-74
2023/08/22 08:05:49;;;;;;;19.33;8.40;;;24.90;31.00;;;;;;4974674;28;20439;-74
2023/08/22 08:08:14;;;;;;;16.33;7.75;;;25.00;30.20;;;;;;4976151;28;20388;-74
2023/08/22 08:10:40;;;;;;;15.47;8.53;;;25.20;29.80;;;;;;4975725;28;20443;-74
2023/08/22 08:13:05;;;;;;;13.32;7.65;;;25.30;29.20;;;;;;4975732;28;20431;-74
2023/08/22 08:15:31;;;;;;;19.50;9.70;;;25.80;28.10;;;;;;4975996;28;20500;-75
2023/08/22 08:17:58;;;;;;;21.07;9.37;;;26.10;27.40;;;;;;4976933;28;20415;-74
2023/08/22 08:20:24;;;;;;;19.75;8.45;;;26.10;26.90;;;;;;4959312;28;21079;-75
2023/08/22 08:22:50;;;;;;;20.08;8.48;;;26.00;27.40;;;;;;4975605;28;20408;-74
2023/08/22 08:25:15;;;;;;;14.87;8.60;;;25.90;27.60;;;;;;4976598;28;20414;-74
2023/08/22 08:27:41;;;;;;;18.90;9.33;;;26.10;28.00;;;;;;4975871;28;20393;-72
2023/08/22 08:30:10;;;;;;;17.83;8.82;;;26.20;27.30;;;;;;4974574;28;20542;-72
2023/08/22 08:32:35;;;;;;;21.67;10.05;;;26.30;27.10;;;;;;4974023;28;20428;-73
2023/08/22 08:35:01;;;;;;;19.67;10.52;;;26.70;25.40;;;;;;4974238;28;20869;-74
2023/08/22 08:37:28;;;;;;;20.70;10.10;;;26.80;25.20;;;;;;4956790;28;20876;-73
2023/08/22 08:39:53;;;;;;;21.80;10.10;;;26.80;25.20;;;;;;4974193;28;20753;-74
2023/08/22 08:42:19;;;;;;;22.97;10.70;;;27.00;23.00;;;;;;4974491;28;20381;-74
2023/08/22 08:44:44;;;;;;;19.35;10.23;;;26.60;22.50;;;;;;4974301;28;20404;-75
2023/08/22 08:47:10;;;;;;;27.47;11.30;;;26.50;23.00;;;;;;4974629;28;20388;-75
2023/08/22 08:49:37;;;;;;;30.85;11.52;;;26.80;23.20;;;;;;4974935;28;20696;-73
2023/08/22 08:52:07;;;;;;;31.90;12.30;;;26.70;22.30;;;;;;4975269;28;20392;-74
2023/08/22 08:54:33;;;;;;;31.65;13.55;;;26.70;22.20;;;;;;4975256;28;20882;-73
2023/08/22 08:56:59;;;;;;;26.23;11.70;;;27.00;22.40;;;;;;4974907;28;20408;-75
2023/08/22 08:59:25;;;;;;;24.58;11.23;;;27.30;21.60;;;;;;4957031;28;20793;-75
2023/08/22 09:01:51;;;;;;;24.63;9.40;;;27.50;20.30;;;;;;4974154;28;20443;-74
2023/08/22 09:04:17;;;;;;;22.33;9.20;;;27.90;19.40;;;;;;4973873;28;20836;-74
2023/08/22 09:06:45;;;;;;;24.40;9.82;;;27.90;19.40;;;;;;4974285;28;20439;-73
2023/08/22 09:09:12;;;;;;;24.90;10.10;;;27.70;18.70;;;;;;4974305;28;20968;-74
2023/08/22 09:11:45;;;;;;;28.08;9.70;;;27.50;18.80;;;;;;4973158;28;20392;-73
2023/08/22 09:14:11;;;;;;;21.48;9.65;;;27.60;19.10;;;;;;4973642;28;20791;-74
2023/08/22 09:16:37;;;;;;;20.60;8.80;;;27.70;18.50;;;;;;4973677;28;20395;-72
2023/08/22 09:19:03;;;;;;;23.00;8.95;;;27.40;19.70;;;;;;4973662;28;20475;-73
2023/08/22 09:21:29;;;;;;;16.37;8.47;;;26.80;20.30;;;;;;4956713;28;20424;-74
2023/08/22 09:24:15;;;;;;;17.00;7.95;;;26.70;20.40;;;;;;4973548;28;20534;-73
2023/08/22 09:26:46;;;;;;;19.42;7.50;;;26.70;21.40;;;;;;4955695;28;20388;-74
2023/08/22 09:29:12;;;;;;;18.20;7.30;;;26.80;21.10;;;;;;4973563;28;20380;-72
2023/08/22 09:31:38;;;;;;;16.47;7.20;;;27.10;20.80;;;;;;4972475;28;20376;-72
2023/08/22 09:34:09;;;;;;;17.10;6.90;;;27.20;20.00;;;;;;4972649;28;20482;-71
2023/08/22 09:36:44;;;;;;;15.25;6.75;;;27.50;19.60;;;;;;4972942;28;20383;-74
2023/08/22 09:39:12;;;;;;;19.27;8.95;;;27.60;18.60;;;;;;4973051;28;20715;-72
2023/08/22 09:41:38;;;;;;;17.20;7.87;;;27.40;19.00;;;;;;4972698;28;20384;-72
2023/08/22 09:44:05;;;;;;;17.85;8.18;;;27.30;19.50;;;;;;4972959;28;20491;-72
2023/08/22 09:46:31;;;;;;;18.50;7.28;;;27.30;19.50;;;;;;4972251;28;20432;-74
2023/08/22 09:49:00;;;;;;;11.65;6.03;;;27.40;18.80;;;;;;4973059;28;20419;-74
2023/08/22 09:51:25;;;;;;;14.50;7.95;;;26.70;20.30;;;;;;4972703;28;20687;-73
2023/08/22 09:53:54;;;;;;;14.38;6.55;;;26.30;21.40;;;;;;4973079;28;20386;-73
2023/08/22 09:56:20;;;;;;;11.35;6.60;;;26.20;20.90;;;;;;4972672;28;20396;-74
2023/08/22 09:58:46;;;;;;;12.45;6.45;;;26.40;20.30;;;;;;4972300;28;20430;-73
2023/08/22 10:01:16;;;;;;;13.80;6.50;;;26.50;20.60;;;;;;4972602;28;20480;-73
2023/08/22 10:03:46;;;;;;;13.40;5.85;;;26.80;19.60;;;;;;4972452;28;20759;-74
2023/08/22 10:06:14;;;;;;;12.50;5.60;;;26.90;18.90;;;;;;4972065;28;20419;-73
2023/08/22 10:08:46;;;;;;;13.20;5.93;;;26.70;20.20;;;;;;4972623;28;20385;-73
2023/08/22 10:11:13;;;;;;;13.13;6.45;;;26.80;20.00;;;;;;4977760;28;20411;-74
2023/08/22 10:13:40;;;;;;;15.60;6.15;;;26.60;20.10;;;;;;4977535;28;20438;-73
2023/08/22 10:16:06;;;;;;;11.50;5.50;;;26.60;19.50;;;;;;4959569;28;20751;-72
2023/08/22 10:18:32;;;;;;;10.67;5.50;;;26.60;20.00;;;;;;4973004;28;20388;-73
2023/08/22 10:20:57;;;;;;;12.38;4.80;;;26.60;19.60;;;;;;4955206;28;20631;-73
2023/08/22 10:23:51;;;;;;;9.40;4.70;;;26.70;20.30;;;;;;4972642;28;20416;-72
2023/08/22 10:26:16;;;;;;;12.68;5.03;;;27.20;19.20;;;;;;4971918;28;20472;-72
2023/08/22 10:28:43;;;;;;;16.00;6.60;;;26.70;18.90;;;;;;4972487;28;20755;-72
2023/08/22 10:31:09;;;;;;;13.05;5.80;;;26.80;19.70;;;;;;4971858;28;20392;-73
2023/08/22 10:33:34;;;;;;;10.17;5.40;;;27.10;18.90;;;;;;4973089;28;20427;-74
2023/08/22 10:36:13;;;;;;;9.45;5.20;;;27.40;17.90;;;;;;4972064;28;20476;-74
2023/08/22 10:39:00;;;;;;;9.20;4.30;;;27.40;17.10;;;;;;4972288;28;20901;-72
2023/08/22 10:41:46;;;;;;;9.30;4.18;;;27.30;17.60;;;;;;4954232;28;20890;-73
2023/08/22 10:44:26;;;;;;;8.80;4.25;;;27.50;17.40;;;;;;4971803;28;20531;-73
2023/08/22 10:47:02;;;;;;;9.90;4.50;;;27.60;18.10;;;;;;4971828;28;20415;-74
2023/08/22 10:49:29;;;;;;;10.82;4.75;;;27.80;16.40;;;;;;4972313;28;20384;-74
2023/08/22 10:52:11;;;;;;;15.20;5.28;;;28.00;16.60;;;;;;4971884;28;20388;-73
2023/08/22 10:55:02;;;;;;;6.95;4.50;;;28.20;17.40;;;;;;4971957;28;20744;-73
2023/08/22 10:57:40;;;;;;;13.65;4.70;;;27.70;16.80;;;;;;4973047;28;20388;-73
2023/08/22 11:02:37;;;;;;;10.07;4.50;;;27.30;18.20;;;;;;4975765;28;20419;-74
2023/08/22 11:05:06;;;;;;;8.65;4.20;;;27.20;18.10;;;;;;4976526;28;20416;-73
2023/08/22 11:07:34;;;;;;;14.05;5.30;;;27.00;18.90;;;;;;4978344;28;20394;-74
2023/08/22 11:09:59;;;;;;;11.25;5.18;;;26.90;18.90;;;;;;4977949;28;20471;-73
2023/08/22 11:12:28;;;;;;;8.68;5.10;;;26.80;18.20;;;;;;4978937;28;20927;-73
2023/08/22 11:14:57;;;;;;;8.98;4.40;;;26.70;19.00;;;;;;4979302;28;20888;-73
2023/08/22 11:17:23;;;;;;;10.10;4.40;;;26.90;19.70;;;;;;4961030;28;20427;-73
2023/08/22 11:19:51;;;;;;;12.00;4.40;;;26.70;19.80;;;;;;4978457;28;20400;-73
2023/08/22 11:22:17;;;;;;;17.25;5.50;;;26.60;20.90;;;;;;4962727;28;20416;-73
2023/08/22 11:24:47;;;;;;;10.85;5.00;;;26.20;21.90;;;;;;4983238;28;20411;-72
2023/08/22 11:27:13;;;;;;;12.30;5.73;;;26.10;22.40;;;;;;4968918;28;20735;-73
2023/08/22 11:29:59;;;;;;;11.43;5.50;;;26.20;22.00;;;;;;4986696;28;20387;-73
2023/08/22 11:32:27;;;;;;;8.80;5.00;;;26.60;21.20;;;;;;4980264;28;20407;-72
2023/08/22 11:34:59;;;;;;;14.98;5.10;;;27.00;21.30;;;;;;4982447;28;20396;-73
2023/08/22 11:37:25;;;;;;;8.93;4.93;;;27.00;20.60;;;;;;4984560;28;20907;-74
2023/08/22 11:39:52;;;;;;;9.68;5.00;;;27.10;19.10;;;;;;4984232;28;20396;-73
2023/08/22 11:42:19;;;;;;;8.25;4.20;;;27.10;19.50;;;;;;4984277;28;20394;-73
2023/08/22 11:45:03;;;;;;;11.05;4.50;;;27.60;18.60;;;;;;4983674;28;20462;-72
2023/08/22 11:47:39;;;;;;;6.78;4.28;;;27.80;17.30;;;;;;4982576;28;20380;-73
2023/08/22 11:50:06;;;;;;;9.52;4.25;;;27.40;18.60;;;;;;4983811;28;20415;-72
2023/08/22 11:52:34;;;;;;;8.55;4.03;;;27.60;18.20;;;;;;4983438;28;20396;-73
2023/08/22 11:55:06;;;;;;;8.90;4.60;;;28.20;18.10;;;;;;4982620;28;20411;-73
2023/08/22 11:57:34;;;;;;;9.85;4.50;;;27.60;17.70;;;;;;4983405;28;20905;-74
2023/08/22 12:00:01;;;;;;;9.30;4.30;;;27.50;18.40;;;;;;4984969;28;20503;-73
2023/08/22 12:02:27;;;;;;;11.23;4.40;;;27.50;18.40;;;;;;4986446;28;20400;-72
2023/08/22 12:04:55;;;;;;;7.83;3.50;;;27.80;17.20;;;;;;4984734;28;20471;-72
2023/08/22 12:07:21;;;;;;;11.15;3.42;;;28.20;16.50;;;;;;4983791;28;20396;-74
2023/08/22 12:10:03;;;;;;;5.35;2.78;;;27.90;13.90;;;;;;4981903;28;20393;-74
2023/08/22 12:12:29;;;;;;;9.93;3.20;;;27.60;14.60;;;;;;4979535;28;20467;-73
2023/08/22 12:14:55;;;;;;;7.40;2.90;;;27.40;15.10;;;;;;4978856;28;20388;-72
2023/08/22 12:17:21;;;;;;;10.07;3.70;;;27.30;15.50;;;;;;4977948;28;20415;-72
2023/08/22 12:19:46;;;;;;;9.30;3.57;;;27.30;16.50;;;;;;4977690;28;20403;-74
2023/08/22 12:22:12;;;;;;;10.27;3.45;;;27.30;17.10;;;;;;4975416;28;20400;-73
2023/08/22 12:24:37;;;;;;;11.60;3.10;;;27.50;17.60;;;;;;4976278;28;20456;-73
2023/08/22 12:27:03;;;;;;;6.47;2.88;;;27.40;15.50;;;;;;4975938;28;20496;-74
2023/08/22 12:29:29;;;;;;;3.83;2.20;;;27.20;15.00;;;;;;4976945;28;20423;-73
2023/08/22 12:31:54;;;;;;;8.13;3.37;;;27.00;15.90;;;;;;4977741;28;20393;-73
2023/08/22 12:34:20;;;;;;;6.28;3.25;;;27.00;17.30;;;;;;4980230;28;20464;-73
2023/08/22 12:36:45;;;;;;;9.73;3.30;;;27.10;17.40;;;;;;4978828;28;20711;-73
2023/08/22 12:39:12;;;;;;;8.30;3.60;;;27.10;17.70;;;;;;4977298;28;20391;-73